This is the latest recevied weather packets stored in our database for station/object TVARMINN. If no packets are shown the sender has not sent any weather packets the latest 10 day(s).
| Time | Temp. | Humidity | Pressure | Rain* | Wind** | Luminosity | Snow |
|---|---|---|---|---|---|---|---|
| 1777756028 | 6.67° C | 85% | 1008 hPa | 0 mm | - | - | - |
| 1777754829 | 6.67° C | 83% | 1008.2 hPa | 0 mm | - | - | - |
| 1777753628 | 7.78° C | 80% | 1008.4 hPa | 0 mm | - | - | - |
| 1777752429 | 7.22° C | 81% | 1008.4 hPa | 0 mm | - | - | - |
| 1777751228 | 7.22° C | 82% | 1008.6 hPa | 0 mm | - | - | - |
| 1777750028 | 7.22° C | 81% | 1008.9 hPa | 0 mm | - | - | - |
| 1777748828 | 7.22° C | 80% | 1009.1 hPa | 0 mm | - | - | - |
| 1777747627 | 7.78° C | 77% | 1009.2 hPa | 0 mm | - | - | - |
| 1777746428 | 7.78° C | 77% | 1009.4 hPa | 0 mm | - | - | - |
| 1777745227 | 8.33° C | 74% | 1009.5 hPa | 0 mm | - | - | - |
| 1777744027 | 8.33° C | 74% | 1009.7 hPa | 0 mm | - | - | - |
| 1777742828 | 8.33° C | 74% | 1009.8 hPa | 0 mm | - | - | - |
| 1777741627 | 8.33° C | 74% | 1010 hPa | 0 mm | - | - | - |
| 1777740427 | 8.89° C | 73% | 1010.2 hPa | 0 mm | - | - | - |
| 1777739227 | 8.33° C | 76% | 1010.3 hPa | 0 mm | - | - | - |
| 1777738027 | 8.89° C | 75% | 1010.5 hPa | 0 mm | - | - | - |
| 1777736827 | 8.89° C | 74% | 1010.9 hPa | 0 mm | - | - | - |
| 1777735626 | 9.44° C | 71% | 1011.1 hPa | 0 mm | - | - | - |
| 1777734427 | 10° C | 69% | 1011.2 hPa | 0 mm | - | - | - |
| 1777733226 | 10° C | 69% | 1011.3 hPa | 0 mm | - | - | - |
| 1777732027 | 10.56° C | 67% | 1011.3 hPa | 0 mm | - | - | - |
| 1777729627 | 10° C | 67% | 1011.6 hPa | 0 mm | - | - | - |
| 1777728427 | 10° C | 69% | 1011.7 hPa | 0 mm | - | - | - |
| 1777727227 | 10° C | 69% | 1011.7 hPa | 0 mm | - | - | - |
| 1777726027 | 10° C | 66% | 1011.7 hPa | 0 mm | - | - | - |
* Rain latest hour (hover to see other rain measurements)
** Current wind speed in m/s (hover to see current wind gust speed)